sensor_id;sensor_type;location;lat;lon;timestamp;pressure;altitude;pressure_sealevel;temperature;humidity
70902;BME280;58548;47.210;8.618;2022-12-24T00:01:05;93899.00;;;18.30;43.39
70902;BME280;58548;47.210;8.618;2022-12-24T00:03:35;93899.34;;;18.16;43.23
70902;BME280;58548;47.210;8.618;2022-12-24T00:06:14;93904.63;;;17.99;42.65
70902;BME280;58548;47.210;8.618;2022-12-24T00:08:47;93887.09;;;18.10;43.07
70902;BME280;58548;47.210;8.618;2022-12-24T00:11:13;93892.03;;;18.41;42.63
70902;BME280;58548;47.210;8.618;2022-12-24T00:13:41;93878.34;;;18.27;41.92
70902;BME280;58548;47.210;8.618;2022-12-24T00:16:07;93900.16;;;18.00;42.52
70902;BME280;58548;47.210;8.618;2022-12-24T00:18:35;93869.63;;;18.09;41.97
70902;BME280;58548;47.210;8.618;2022-12-24T00:21:01;93881.06;;;17.98;41.38
70902;BME280;58548;47.210;8.618;2022-12-24T00:23:28;93907.31;;;17.87;42.82
70902;BME280;58548;47.210;8.618;2022-12-24T00:25:55;93892.16;;;17.66;42.75
70902;BME280;58548;47.210;8.618;2022-12-24T00:28:26;93912.31;;;18.01;41.97
70902;BME280;58548;47.210;8.618;2022-12-24T00:30:52;93934.88;;;18.26;42.20
70902;BME280;58548;47.210;8.618;2022-12-24T00:33:18;93912.88;;;18.37;41.56
70902;BME280;58548;47.210;8.618;2022-12-24T00:35:49;93935.84;;;18.53;41.11
70902;BME280;58548;47.210;8.618;2022-12-24T00:38:18;93932.50;;;18.80;41.22
70902;BME280;58548;47.210;8.618;2022-12-24T00:40:49;93922.97;;;18.79;40.74
70902;BME280;58548;47.210;8.618;2022-12-24T00:43:17;93934.88;;;18.60;40.68
70902;BME280;58548;47.210;8.618;2022-12-24T00:45:45;93939.72;;;18.68;41.48
70902;BME280;58548;47.210;8.618;2022-12-24T00:48:13;93951.06;;;18.46;41.50
70902;BME280;58548;47.210;8.618;2022-12-24T00:50:42;93968.88;;;18.34;41.61
70902;BME280;58548;47.210;8.618;2022-12-24T00:53:07;93933.81;;;17.92;41.73
70902;BME280;58548;47.210;8.618;2022-12-24T00:55:36;93939.22;;;17.69;42.64
70902;BME280;58548;47.210;8.618;2022-12-24T00:58:04;93939.56;;;17.89;41.95
70902;BME280;58548;47.210;8.618;2022-12-24T01:00:33;93952.63;;;17.96;41.73
70902;BME280;58548;47.210;8.618;2022-12-24T01:03:01;93962.69;;;17.82;42.33
70902;BME280;58548;47.210;8.618;2022-12-24T01:05:30;93972.16;;;17.78;42.28
70902;BME280;58548;47.210;8.618;2022-12-24T01:07:56;93932.28;;;17.33;42.69
70902;BME280;58548;47.210;8.618;2022-12-24T01:10:22;93963.94;;;17.33;42.26
70902;BME280;58548;47.210;8.618;2022-12-24T01:12:53;93981.28;;;17.58;42.17
70902;BME280;58548;47.210;8.618;2022-12-24T01:15:21;93993.44;;;17.30;42.13
70902;BME280;58548;47.210;8.618;2022-12-24T01:17:49;93991.16;;;17.22;42.96
70902;BME280;58548;47.210;8.618;2022-12-24T01:20:16;94002.38;;;17.29;42.42
70902;BME280;58548;47.210;8.618;2022-12-24T01:22:45;94010.88;;;17.31;42.51
70902;BME280;58548;47.210;8.618;2022-12-24T01:25:11;93992.44;;;17.20;42.03
70902;BME280;58548;47.210;8.618;2022-12-24T01:27:37;94011.56;;;17.27;42.79
70902;BME280;58548;47.210;8.618;2022-12-24T01:30:07;93999.22;;;17.56;41.80
70902;BME280;58548;47.210;8.618;2022-12-24T01:32:34;93957.53;;;17.29;41.63
70902;BME280;58548;47.210;8.618;2022-12-24T01:35:02;93997.31;;;17.69;41.19
70902;BME280;58548;47.210;8.618;2022-12-24T01:37:29;94008.25;;;17.60;41.84
70902;BME280;58548;47.210;8.618;2022-12-24T01:39:57;94015.72;;;17.92;41.31
70902;BME280;58548;47.210;8.618;2022-12-24T01:42:51;93984.25;;;17.21;43.06
70902;BME280;58548;47.210;8.618;2022-12-24T01:48:44;94001.81;;;17.27;44.13
70902;BME280;58548;47.210;8.618;2022-12-24T01:51:28;93997.56;;;17.26;43.78
70902;BME280;58548;47.210;8.618;2022-12-24T01:56:36;93977.78;;;16.88;44.12
70902;BME280;58548;47.210;8.618;2022-12-24T01:59:12;93977.75;;;17.24;44.56
70902;BME280;58548;47.210;8.618;2022-12-24T02:01:43;93987.53;;;17.52;44.19
70902;BME280;58548;47.210;8.618;2022-12-24T02:06:49;93987.63;;;17.05;44.28
70902;BME280;58548;47.210;8.618;2022-12-24T02:09:15;94006.19;;;17.22;43.87
70902;BME280;58548;47.210;8.618;2022-12-24T02:11:46;94030.91;;;17.56;42.78
70902;BME280;58548;47.210;8.618;2022-12-24T02:14:15;94033.72;;;17.67;43.03
70902;BME280;58548;47.210;8.618;2022-12-24T02:17:12;94033.31;;;17.46;42.67
70902;BME280;58548;47.210;8.618;2022-12-24T02:22:18;94027.38;;;17.39;43.42
70902;BME280;58548;47.210;8.618;2022-12-24T02:38:28;94052.38;;;17.48;41.32
70902;BME280;58548;47.210;8.618;2022-12-24T02:41:08;94023.69;;;17.40;41.21
70902;BME280;58548;47.210;8.618;2022-12-24T02:43:39;93983.63;;;17.14;41.21
70902;BME280;58548;47.210;8.618;2022-12-24T02:46:18;94031.16;;;17.43;41.11
70902;BME280;58548;47.210;8.618;2022-12-24T02:48:47;94043.63;;;17.59;40.25
70902;BME280;58548;47.210;8.618;2022-12-24T02:51:15;94037.47;;;17.42;40.39
70902;BME280;58548;47.210;8.618;2022-12-24T02:53:41;94034.75;;;17.37;40.54
70902;BME280;58548;47.210;8.618;2022-12-24T02:56:19;94025.59;;;17.03;40.53
70902;BME280;58548;47.210;8.618;2022-12-24T03:07:44;94058.84;;;17.28;39.49
70902;BME280;58548;47.210;8.618;2022-12-24T03:10:29;94061.94;;;17.25;39.20
70902;BME280;58548;47.210;8.618;2022-12-24T03:13:07;94054.03;;;17.25;39.43
70902;BME280;58548;47.210;8.618;2022-12-24T03:15:41;94045.19;;;17.31;40.49
70902;BME280;58548;47.210;8.618;2022-12-24T03:18:12;94057.28;;;17.68;40.14
70902;BME280;58548;47.210;8.618;2022-12-24T03:20:47;94053.00;;;17.79;39.89
70902;BME280;58548;47.210;8.618;2022-12-24T03:23:18;94043.28;;;17.56;38.96
70902;BME280;58548;47.210;8.618;2022-12-24T03:25:48;94042.50;;;17.55;39.66
70902;BME280;58548;47.210;8.618;2022-12-24T03:28:19;94066.72;;;17.52;39.64
70902;BME280;58548;47.210;8.618;2022-12-24T03:30:49;94054.00;;;17.37;40.27
70902;BME280;58548;47.210;8.618;2022-12-24T03:33:19;94048.53;;;17.15;40.39
70902;BME280;58548;47.210;8.618;2022-12-24T03:35:46;94038.63;;;16.86;40.84
70902;BME280;58548;47.210;8.618;2022-12-24T03:38:21;94025.13;;;16.71;40.72
70902;BME280;58548;47.210;8.618;2022-12-24T03:40:51;94068.94;;;16.84;40.78
70902;BME280;58548;47.210;8.618;2022-12-24T03:43:19;94068.81;;;16.91;41.14
70902;BME280;58548;47.210;8.618;2022-12-24T03:45:47;94060.88;;;16.79;40.97
70902;BME280;58548;47.210;8.618;2022-12-24T03:48:13;94075.69;;;16.92;40.90
70902;BME280;58548;47.210;8.618;2022-12-24T03:50:41;94073.88;;;16.92;40.96
70902;BME280;58548;47.210;8.618;2022-12-24T03:53:07;94059.75;;;16.86;40.36
70902;BME280;58548;47.210;8.618;2022-12-24T03:55:33;94068.50;;;17.23;39.75
70902;BME280;58548;47.210;8.618;2022-12-24T03:57:59;94060.22;;;17.19;40.54
70902;BME280;58548;47.210;8.618;2022-12-24T04:00:27;94061.16;;;17.13;40.38
70902;BME280;58548;47.210;8.618;2022-12-24T04:02:53;94061.59;;;17.33;40.15
70902;BME280;58548;47.210;8.618;2022-12-24T04:05:24;94081.56;;;17.29;40.04
70902;BME280;58548;47.210;8.618;2022-12-24T04:07:50;94050.81;;;16.99;40.79
70902;BME280;58548;47.210;8.618;2022-12-24T04:10:16;94079.34;;;16.91;41.27
70902;BME280;58548;47.210;8.618;2022-12-24T04:12:44;94088.38;;;16.59;42.43
70902;BME280;58548;47.210;8.618;2022-12-24T04:15:10;94080.34;;;16.54;42.53
70902;BME280;58548;47.210;8.618;2022-12-24T04:17:36;94077.91;;;16.40;43.11
70902;BME280;58548;47.210;8.618;2022-12-24T04:20:02;94098.19;;;16.28;44.10
70902;BME280;58548;47.210;8.618;2022-12-24T04:22:31;94060.41;;;15.85;44.72
70902;BME280;58548;47.210;8.618;2022-12-24T04:25:00;94081.59;;;15.60;45.11
70902;BME280;58548;47.210;8.618;2022-12-24T04:27:26;94087.13;;;15.70;45.48
70902;BME280;58548;47.210;8.618;2022-12-24T04:29:52;94103.53;;;15.53;46.08
70902;BME280;58548;47.210;8.618;2022-12-24T04:32:24;94111.84;;;15.69;46.08
70902;BME280;58548;47.210;8.618;2022-12-24T04:34:52;94100.88;;;15.91;45.53
70902;BME280;58548;47.210;8.618;2022-12-24T04:37:20;94107.16;;;15.90;45.72
70902;BME280;58548;47.210;8.618;2022-12-24T04:39:53;94110.69;;;16.02;45.30
70902;BME280;58548;47.210;8.618;2022-12-24T04:42:19;94113.75;;;15.43;46.55
70902;BME280;58548;47.210;8.618;2022-12-24T04:44:47;94132.03;;;15.38;46.66
70902;BME280;58548;47.210;8.618;2022-12-24T04:47:15;94122.53;;;15.56;46.38
70902;BME280;58548;47.210;8.618;2022-12-24T04:49:41;94128.81;;;15.36;47.06
70902;BME280;58548;47.210;8.618;2022-12-24T04:52:08;94144.97;;;15.40;47.28
70902;BME280;58548;47.210;8.618;2022-12-24T04:54:36;94120.19;;;15.47;46.67
70902;BME280;58548;47.210;8.618;2022-12-24T04:57:02;94141.81;;;15.31;47.14
70902;BME280;58548;47.210;8.618;2022-12-24T04:59:27;94157.09;;;15.41;47.38
70902;BME280;58548;47.210;8.618;2022-12-24T05:01:56;94163.78;;;15.62;46.67
70902;BME280;58548;47.210;8.618;2022-12-24T05:04:24;94163.78;;;15.80;46.19
70902;BME280;58548;47.210;8.618;2022-12-24T05:06:52;94171.97;;;15.91;46.28
70902;BME280;58548;47.210;8.618;2022-12-24T05:09:18;94174.63;;;15.91;46.08
70902;BME280;58548;47.210;8.618;2022-12-24T05:11:46;94151.13;;;16.08;45.50
70902;BME280;58548;47.210;8.618;2022-12-24T05:14:14;94146.22;;;15.93;46.36
70902;BME280;58548;47.210;8.618;2022-12-24T05:16:42;94158.88;;;16.03;46.21
70902;BME280;58548;47.210;8.618;2022-12-24T05:19:08;94141.06;;;15.86;46.72
70902;BME280;58548;47.210;8.618;2022-12-24T05:21:34;94175.47;;;16.22;46.25
70902;BME280;58548;47.210;8.618;2022-12-24T05:24:04;94167.81;;;16.32;46.05
70902;BME280;58548;47.210;8.618;2022-12-24T05:26:53;94171.56;;;16.24;45.78
70902;BME280;58548;47.210;8.618;2022-12-24T05:29:23;94155.66;;;16.19;46.07
70902;BME280;58548;47.210;8.618;2022-12-24T05:31:53;94134.34;;;16.21;45.64
70902;BME280;58548;47.210;8.618;2022-12-24T05:34:21;94159.81;;;16.57;45.65
70902;BME280;58548;47.210;8.618;2022-12-24T05:36:47;94157.19;;;16.69;45.68
70902;BME280;58548;47.210;8.618;2022-12-24T05:39:15;94145.16;;;16.73;45.63
70902;BME280;58548;47.210;8.618;2022-12-24T05:41:43;94178.78;;;16.90;44.95
70902;BME280;58548;47.210;8.618;2022-12-24T05:44:11;94140.09;;;16.60;45.04
70902;BME280;58548;47.210;8.618;2022-12-24T05:46:37;94150.25;;;16.45;44.93
70902;BME280;58548;47.210;8.618;2022-12-24T05:49:05;94159.09;;;16.20;45.43
70902;BME280;58548;47.210;8.618;2022-12-24T05:51:33;94173.56;;;16.29;45.77
70902;BME280;58548;47.210;8.618;2022-12-24T05:53:59;94185.00;;;16.23;46.01
70902;BME280;58548;47.210;8.618;2022-12-24T05:56:25;94185.41;;;16.38;45.75
70902;BME280;58548;47.210;8.618;2022-12-24T05:58:54;94189.59;;;16.58;45.57
70902;BME280;58548;47.210;8.618;2022-12-24T06:01:27;94195.34;;;16.36;45.91
70902;BME280;58548;47.210;8.618;2022-12-24T06:03:58;94195.53;;;16.23;45.54
70902;BME280;58548;47.210;8.618;2022-12-24T06:06:28;94203.16;;;15.94;46.26
70902;BME280;58548;47.210;8.618;2022-12-24T06:08:57;94198.31;;;15.91;46.33
70902;BME280;58548;47.210;8.618;2022-12-24T06:11:26;94201.69;;;16.17;45.43
70902;BME280;58548;47.210;8.618;2022-12-24T06:13:54;94167.44;;;15.98;45.46
70902;BME280;58548;47.210;8.618;2022-12-24T06:16:21;94167.00;;;15.82;46.00
70902;BME280;58548;47.210;8.618;2022-12-24T06:18:47;94189.09;;;16.00;45.56
70902;BME280;58548;47.210;8.618;2022-12-24T06:21:20;94192.69;;;15.87;45.85
70902;BME280;58548;47.210;8.618;2022-12-24T06:23:46;94185.94;;;15.73;45.93
70902;BME280;58548;47.210;8.618;2022-12-24T06:26:18;94202.63;;;16.04;45.99
70902;BME280;58548;47.210;8.618;2022-12-24T06:28:47;94207.25;;;16.08;45.38
70902;BME280;58548;47.210;8.618;2022-12-24T06:31:16;94212.66;;;16.13;45.34
70902;BME280;58548;47.210;8.618;2022-12-24T06:33:47;94222.53;;;16.00;45.68
70902;BME280;58548;47.210;8.618;2022-12-24T06:36:22;94224.53;;;16.04;45.59
70902;BME280;58548;47.210;8.618;2022-12-24T06:38:51;94233.44;;;16.03;45.62
70902;BME280;58548;47.210;8.618;2022-12-24T06:41:20;94253.56;;;16.16;45.55
70902;BME280;58548;47.210;8.618;2022-12-24T06:43:50;94256.63;;;16.32;45.08
70902;BME280;58548;47.210;8.618;2022-12-24T06:46:22;94240.00;;;16.31;45.58
70902;BME280;58548;47.210;8.618;2022-12-24T06:48:48;94238.44;;;16.30;44.97
70902;BME280;58548;47.210;8.618;2022-12-24T06:51:18;94232.69;;;16.33;44.86
70902;BME280;58548;47.210;8.618;2022-12-24T06:53:50;94229.09;;;16.27;44.89
70902;BME280;58548;47.210;8.618;2022-12-24T06:56:22;94242.38;;;16.21;45.32
70902;BME280;58548;47.210;8.618;2022-12-24T06:58:50;94244.56;;;16.24;44.64
70902;BME280;58548;47.210;8.618;2022-12-24T07:01:19;94222.31;;;16.01;45.01
70902;BME280;58548;47.210;8.618;2022-12-24T07:03:51;94239.59;;;16.16;44.64
70902;BME280;58548;47.210;8.618;2022-12-24T07:06:28;94240.25;;;16.11;44.37
70902;BME280;58548;47.210;8.618;2022-12-24T07:08:57;94250.44;;;16.07;44.20
70902;BME280;58548;47.210;8.618;2022-12-24T07:11:24;94250.44;;;16.26;44.07
70902;BME280;58548;47.210;8.618;2022-12-24T07:13:52;94266.81;;;16.28;43.73
70902;BME280;58548;47.210;8.618;2022-12-24T07:16:18;94275.50;;;16.47;44.03
70902;BME280;58548;47.210;8.618;2022-12-24T07:18:47;94269.59;;;16.33;44.13
70902;BME280;58548;47.210;8.618;2022-12-24T07:21:12;94261.81;;;16.38;43.89
70902;BME280;58548;47.210;8.618;2022-12-24T07:23:41;94273.88;;;16.46;43.65
70902;BME280;58548;47.210;8.618;2022-12-24T07:26:10;94260.53;;;16.29;43.18
70902;BME280;58548;47.210;8.618;2022-12-24T07:28:36;94257.16;;;16.22;43.75
70902;BME280;58548;47.210;8.618;2022-12-24T07:31:02;94266.94;;;16.33;43.98
70902;BME280;58548;47.210;8.618;2022-12-24T07:33:28;94280.13;;;16.33;43.81
70902;BME280;58548;47.210;8.618;2022-12-24T07:36:01;94297.19;;;16.49;43.91
70902;BME280;58548;47.210;8.618;2022-12-24T07:38:27;94294.19;;;16.46;43.92
70902;BME280;58548;47.210;8.618;2022-12-24T07:40:53;94305.44;;;16.53;43.05
70902;BME280;58548;47.210;8.618;2022-12-24T07:43:19;94300.16;;;16.53;43.36
70902;BME280;58548;47.210;8.618;2022-12-24T07:45:47;94305.59;;;16.58;43.25
70902;BME280;58548;47.210;8.618;2022-12-24T07:48:13;94304.38;;;16.61;43.25
70902;BME280;58548;47.210;8.618;2022-12-24T07:50:39;94307.78;;;16.61;42.79
70902;BME280;58548;47.210;8.618;2022-12-24T07:53:10;94307.34;;;16.64;43.15
70902;BME280;58548;47.210;8.618;2022-12-24T07:55:36;94309.16;;;16.64;43.50
70902;BME280;58548;47.210;8.618;2022-12-24T07:58:02;94310.78;;;16.65;43.74
70902;BME280;58548;47.210;8.618;2022-12-24T08:00:32;94301.25;;;16.64;43.32
70902;BME280;58548;47.210;8.618;2022-12-24T08:03:02;94313.34;;;16.71;43.24
70902;BME280;58548;47.210;8.618;2022-12-24T08:05:28;94289.78;;;16.39;43.06
70902;BME280;58548;47.210;8.618;2022-12-24T08:07:54;94329.41;;;16.51;42.91
70902;BME280;58548;47.210;8.618;2022-12-24T08:10:21;94315.78;;;16.54;43.13
70902;BME280;58548;47.210;8.618;2022-12-24T08:12:50;94253.06;;;16.26;42.93
70902;BME280;58548;47.210;8.618;2022-12-24T08:15:18;94295.88;;;16.58;42.42
70902;BME280;58548;47.210;8.618;2022-12-24T08:17:46;94329.88;;;16.79;42.65
70902;BME280;58548;47.210;8.618;2022-12-24T08:20:14;94322.28;;;16.70;42.71
70902;BME280;58548;47.210;8.618;2022-12-24T08:22:42;94334.44;;;16.71;42.55
70902;BME280;58548;47.210;8.618;2022-12-24T08:25:08;94325.72;;;16.71;42.42
70902;BME280;58548;47.210;8.618;2022-12-24T08:27:35;94334.38;;;16.60;43.47
70902;BME280;58548;47.210;8.618;2022-12-24T08:30:05;94323.47;;;16.56;42.96
70902;BME280;58548;47.210;8.618;2022-12-24T08:32:31;94324.78;;;16.65;42.62
70902;BME280;58548;47.210;8.618;2022-12-24T08:34:58;94297.09;;;16.56;42.71
70902;BME280;58548;47.210;8.618;2022-12-24T08:37:26;94306.19;;;16.60;41.91
70902;BME280;58548;47.210;8.618;2022-12-24T08:39:52;94298.13;;;16.55;42.10
70902;BME280;58548;47.210;8.618;2022-12-24T08:42:18;94287.03;;;16.65;41.89
70902;BME280;58548;47.210;8.618;2022-12-24T08:44:49;94289.03;;;16.69;41.81
70902;BME280;58548;47.210;8.618;2022-12-24T08:47:18;94307.91;;;16.85;41.69
70902;BME280;58548;47.210;8.618;2022-12-24T08:49:46;94314.50;;;16.76;41.93
70902;BME280;58548;47.210;8.618;2022-12-24T08:52:12;94315.22;;;16.83;41.37
70902;BME280;58548;47.210;8.618;2022-12-24T08:54:41;94315.84;;;16.66;41.63
70902;BME280;58548;47.210;8.618;2022-12-24T08:57:07;94271.56;;;16.38;41.44
70902;BME280;58548;47.210;8.618;2022-12-24T08:59:33;94280.41;;;16.43;41.17
70902;BME280;58548;47.210;8.618;2022-12-24T09:02:02;94331.16;;;16.76;41.03
70902;BME280;58548;47.210;8.618;2022-12-24T09:04:30;94344.25;;;16.83;41.31
70902;BME280;58548;47.210;8.618;2022-12-24T09:06:56;94357.44;;;16.83;42.19
70902;BME280;58548;47.210;8.618;2022-12-24T09:09:22;94352.31;;;16.88;41.68
70902;BME280;58548;47.210;8.618;2022-12-24T09:11:48;94360.13;;;16.95;41.54
70902;BME280;58548;47.210;8.618;2022-12-24T09:14:17;94349.81;;;16.93;40.88
70902;BME280;58548;47.210;8.618;2022-12-24T09:16:46;94373.06;;;17.03;40.90
70902;BME280;58548;47.210;8.618;2022-12-24T09:19:12;94349.22;;;16.91;41.17
70902;BME280;58548;47.210;8.618;2022-12-24T09:21:38;94351.88;;;16.91;40.93
70902;BME280;58548;47.210;8.618;2022-12-24T09:24:04;94336.34;;;16.83;41.30
70902;BME280;58548;47.210;8.618;2022-12-24T09:26:33;94330.63;;;16.86;40.83
70902;BME280;58548;47.210;8.618;2022-12-24T09:29:01;94343.94;;;16.91;40.89
70902;BME280;58548;47.210;8.618;2022-12-24T09:31:28;94340.44;;;16.97;40.89
70902;BME280;58548;47.210;8.618;2022-12-24T09:33:57;94332.53;;;16.79;40.79
70902;BME280;58548;47.210;8.618;2022-12-24T09:36:25;94328.28;;;16.78;41.02
70902;BME280;58548;47.210;8.618;2022-12-24T09:38:53;94326.06;;;16.74;40.78
70902;BME280;58548;47.210;8.618;2022-12-24T09:49:58;94330.47;;;16.99;41.24
70902;BME280;58548;47.210;8.618;2022-12-24T09:52:38;94341.84;;;17.00;41.00
70902;BME280;58548;47.210;8.618;2022-12-24T09:58:05;94354.25;;;16.93;41.82
70902;BME280;58548;47.210;8.618;2022-12-24T10:00:40;94345.56;;;16.55;42.28
70902;BME280;58548;47.210;8.618;2022-12-24T10:03:16;94345.56;;;16.18;42.19
70902;BME280;58548;47.210;8.618;2022-12-24T10:11:08;94359.66;;;16.30;42.59
70902;BME280;58548;47.210;8.618;2022-12-24T10:13:56;94320.31;;;16.10;42.20
70902;BME280;58548;47.210;8.618;2022-12-24T10:24:23;94351.72;;;16.86;42.39
70902;BME280;58548;47.210;8.618;2022-12-24T10:27:08;94352.38;;;17.00;42.63
70902;BME280;58548;47.210;8.618;2022-12-24T10:29:41;94342.47;;;17.14;41.63
70902;BME280;58548;47.210;8.618;2022-12-24T10:34:48;94336.28;;;17.20;42.60
70902;BME280;58548;47.210;8.618;2022-12-24T10:37:29;94341.81;;;17.30;42.01
70902;BME280;58548;47.210;8.618;2022-12-24T10:39:59;94352.06;;;17.39;41.96
70902;BME280;58548;47.210;8.618;2022-12-24T10:42:39;94341.63;;;17.44;42.12
70902;BME280;58548;47.210;8.618;2022-12-24T10:45:16;94353.59;;;17.58;41.30
70902;BME280;58548;47.210;8.618;2022-12-24T10:47:53;94373.25;;;17.74;41.16
70902;BME280;58548;47.210;8.618;2022-12-24T10:50:30;94370.28;;;17.71;40.25
70902;BME280;58548;47.210;8.618;2022-12-24T10:53:13;94374.53;;;17.72;40.93
70902;BME280;58548;47.210;8.618;2022-12-24T10:55:46;94369.97;;;17.79;40.77
70902;BME280;58548;47.210;8.618;2022-12-24T10:58:18;94360.53;;;17.83;40.34
70902;BME280;58548;47.210;8.618;2022-12-24T11:00:52;94346.66;;;17.88;41.38
70902;BME280;58548;47.210;8.618;2022-12-24T11:03:44;94350.22;;;17.93;40.47
70902;BME280;58548;47.210;8.618;2022-12-24T11:06:17;94345.72;;;17.94;41.52
70902;BME280;58548;47.210;8.618;2022-12-24T11:08:47;94314.59;;;17.84;41.08
70902;BME280;58548;47.210;8.618;2022-12-24T11:11:17;94338.28;;;18.03;40.51
70902;BME280;58548;47.210;8.618;2022-12-24T11:13:54;94337.09;;;17.75;40.96
70902;BME280;58548;47.210;8.618;2022-12-24T11:16:36;94342.44;;;17.99;41.18
70902;BME280;58548;47.210;8.618;2022-12-24T11:19:05;94330.47;;;18.08;40.33
70902;BME280;58548;47.210;8.618;2022-12-24T11:21:40;94328.41;;;18.10;40.40
70902;BME280;58548;47.210;8.618;2022-12-24T11:26:43;94334.50;;;17.99;40.25
70902;BME280;58548;47.210;8.618;2022-12-24T11:31:47;94313.53;;;17.73;40.66
70902;BME280;58548;47.210;8.618;2022-12-24T11:36:56;94317.22;;;17.72;40.63
70902;BME280;58548;47.210;8.618;2022-12-24T11:39:39;94318.81;;;17.73;40.54
70902;BME280;58548;47.210;8.618;2022-12-24T11:42:28;94297.47;;;17.75;40.67
70902;BME280;58548;47.210;8.618;2022-12-24T11:44:59;94314.59;;;17.84;40.15
70902;BME280;58548;47.210;8.618;2022-12-24T11:47:37;94308.50;;;17.84;40.23
70902;BME280;58548;47.210;8.618;2022-12-24T11:50:29;94322.19;;;17.81;39.97
70902;BME280;58548;47.210;8.618;2022-12-24T11:58:17;94320.41;;;17.51;40.75
70902;BME280;58548;47.210;8.618;2022-12-24T12:01:01;94320.03;;;17.35;41.38
70902;BME280;58548;47.210;8.618;2022-12-24T12:04:01;94320.72;;;17.30;41.15
70902;BME280;58548;47.210;8.618;2022-12-24T12:09:31;94321.19;;;16.97;42.01
70902;BME280;58548;47.210;8.618;2022-12-24T12:12:06;94295.72;;;16.53;42.26
70902;BME280;58548;47.210;8.618;2022-12-24T12:15:04;94322.28;;;16.70;41.76
70902;BME280;58548;47.210;8.618;2022-12-24T12:20:24;94313.50;;;16.39;42.61
70902;BME280;58548;47.210;8.618;2022-12-24T12:23:01;94341.31;;;16.54;42.54
70902;BME280;58548;47.210;8.618;2022-12-24T12:25:39;94332.78;;;16.40;42.64
70902;BME280;58548;47.210;8.618;2022-12-24T12:28:22;94306.41;;;15.52;44.32
70902;BME280;58548;47.210;8.618;2022-12-24T12:31:02;94306.34;;;15.59;44.69
70902;BME280;58548;47.210;8.618;2022-12-24T12:36:20;94282.47;;;15.03;45.48
70902;BME280;58548;47.210;8.618;2022-12-24T12:38:48;94316.31;;;15.25;45.72
70902;BME280;58548;47.210;8.618;2022-12-24T12:41:47;94309.78;;;15.34;45.72
70902;BME280;58548;47.210;8.618;2022-12-24T12:53:04;94302.78;;;15.21;46.15
70902;BME280;58548;47.210;8.618;2022-12-24T12:56:00;94279.69;;;15.48;44.99
70902;BME280;58548;47.210;8.618;2022-12-24T13:20:30;94302.38;;;16.37;43.29
70902;BME280;58548;47.210;8.618;2022-12-24T13:23:17;94316.44;;;16.68;43.15
70902;BME280;58548;47.210;8.618;2022-12-24T13:25:50;94274.09;;;16.63;43.02
70902;BME280;58548;47.210;8.618;2022-12-24T13:36:02;94292.78;;;17.11;42.47
70902;BME280;58548;47.210;8.618;2022-12-24T13:49:41;94260.94;;;17.36;42.05
70902;BME280;58548;47.210;8.618;2022-12-24T14:18:39;94232.59;;;17.79;40.96
70902;BME280;58548;47.210;8.618;2022-12-24T14:21:15;94224.91;;;17.77;41.09
70902;BME280;58548;47.210;8.618;2022-12-24T14:26:33;94305.88;;;18.31;40.93
70902;BME280;58548;47.210;8.618;2022-12-24T14:29:20;94308.84;;;18.35;40.70
70902;BME280;58548;47.210;8.618;2022-12-24T14:31:53;94268.19;;;18.12;40.20
70902;BME280;58548;47.210;8.618;2022-12-24T14:34:20;94307.00;;;18.23;39.79
70902;BME280;58548;47.210;8.618;2022-12-24T14:36:48;94308.31;;;18.09;40.16
70902;BME280;58548;47.210;8.618;2022-12-24T14:39:45;94306.56;;;17.79;40.92
70902;BME280;58548;47.210;8.618;2022-12-24T14:45:17;94229.38;;;17.41;40.58
70902;BME280;58548;47.210;8.618;2022-12-24T14:51:05;94272.88;;;16.96;42.14
70902;BME280;58548;47.210;8.618;2022-12-24T14:56:40;94293.53;;;16.99;42.04
70902;BME280;58548;47.210;8.618;2022-12-24T14:59:21;94290.47;;;16.84;42.18
70902;BME280;58548;47.210;8.618;2022-12-24T15:01:49;94274.94;;;16.76;42.40
70902;BME280;58548;47.210;8.618;2022-12-24T15:04:18;94281.88;;;16.88;41.75
70902;BME280;58548;47.210;8.618;2022-12-24T15:06:51;94288.31;;;16.62;42.64
70902;BME280;58548;47.210;8.618;2022-12-24T15:09:26;94246.56;;;16.59;42.10
70902;BME280;58548;47.210;8.618;2022-12-24T15:11:58;94259.34;;;16.25;43.26
70902;BME280;58548;47.210;8.618;2022-12-24T15:14:28;94235.19;;;16.28;43.02
70902;BME280;58548;47.210;8.618;2022-12-24T15:19:25;94279.19;;;16.77;42.58
70902;BME280;58548;47.210;8.618;2022-12-24T15:21:52;94276.34;;;16.78;42.48
70902;BME280;58548;47.210;8.618;2022-12-24T15:24:25;94271.41;;;16.82;42.84
70902;BME280;58548;47.210;8.618;2022-12-24T15:26:51;94267.31;;;16.86;42.73
70902;BME280;58548;47.210;8.618;2022-12-24T15:29:23;94277.41;;;16.89;42.46
70902;BME280;58548;47.210;8.618;2022-12-24T15:31:59;94278.97;;;16.97;42.80
70902;BME280;58548;47.210;8.618;2022-12-24T15:34:36;94267.72;;;17.01;42.21
70902;BME280;58548;47.210;8.618;2022-12-24T15:42:27;94257.84;;;16.97;42.40
70902;BME280;58548;47.210;8.618;2022-12-24T15:45:13;94273.59;;;17.03;42.52
70902;BME280;58548;47.210;8.618;2022-12-24T15:47:56;94289.88;;;17.00;42.74
70902;BME280;58548;47.210;8.618;2022-12-24T15:50:31;94291.03;;;17.05;42.17
70902;BME280;58548;47.210;8.618;2022-12-24T15:53:06;94251.84;;;16.89;42.37
70902;BME280;58548;47.210;8.618;2022-12-24T15:55:43;94279.00;;;17.09;42.26
70902;BME280;58548;47.210;8.618;2022-12-24T16:00:43;94221.63;;;16.73;42.09
70902;BME280;58548;47.210;8.618;2022-12-24T16:03:16;94290.47;;;17.14;42.50
70902;BME280;58548;47.210;8.618;2022-12-24T16:05:43;94298.16;;;17.16;42.21
70902;BME280;58548;47.210;8.618;2022-12-24T16:10:44;94293.47;;;17.18;42.31
70902;BME280;58548;47.210;8.618;2022-12-24T16:13:21;94225.06;;;16.74;41.70
70902;BME280;58548;47.210;8.618;2022-12-24T16:18:33;94294.88;;;17.21;41.60
70902;BME280;58548;47.210;8.618;2022-12-24T16:20:59;94298.97;;;17.16;41.36
70902;BME280;58548;47.210;8.618;2022-12-24T16:23:37;94279.69;;;17.04;41.01
70902;BME280;58548;47.210;8.618;2022-12-24T16:26:06;94235.38;;;16.76;41.18